sensor_id;sensor_type;location;lat;lon;timestamp;pressure;altitude;pressure_sealevel;temperature;humidity
3250;BME280;1637;42.020;23.992;2023-01-10T00:02:08;92093.47;;;5.74;94.35
3250;BME280;1637;42.020;23.992;2023-01-10T00:04:35;92104.16;;;5.60;95.04
3250;BME280;1637;42.020;23.992;2023-01-10T00:07:02;92100.09;;;5.27;96.14
3250;BME280;1637;42.020;23.992;2023-01-10T00:09:29;92094.84;;;4.80;98.27
3250;BME280;1637;42.020;23.992;2023-01-10T00:11:55;92091.84;;;4.71;99.81
3250;BME280;1637;42.020;23.992;2023-01-10T00:14:41;92092.59;;;4.79;100.00
3250;BME280;1637;42.020;23.992;2023-01-10T00:17:08;92082.72;;;4.90;99.64
3250;BME280;1637;42.020;23.992;2023-01-10T00:19:34;92079.31;;;4.93;98.88
3250;BME280;1637;42.020;23.992;2023-01-10T00:22:01;92099.31;;;5.37;100.00
3250;BME280;1637;42.020;23.992;2023-01-10T00:24:41;92106.00;;;5.66;97.65
3250;BME280;1637;42.020;23.992;2023-01-10T00:27:08;92099.59;;;5.60;97.38
3250;BME280;1637;42.020;23.992;2023-01-10T00:29:42;92097.25;;;5.76;97.53
3250;BME280;1637;42.020;23.992;2023-01-10T00:32:09;92114.56;;;6.06;95.91
3250;BME280;1637;42.020;23.992;2023-01-10T00:34:36;92104.16;;;5.60;95.75
3250;BME280;1637;42.020;23.992;2023-01-10T00:37:03;92101.59;;;5.35;99.12
3250;BME280;1637;42.020;23.992;2023-01-10T00:39:30;92085.91;;;5.62;97.92
3250;BME280;1637;42.020;23.992;2023-01-10T00:41:56;92091.28;;;5.55;97.72
3250;BME280;1637;42.020;23.992;2023-01-10T00:44:40;92086.66;;;5.62;98.79
3250;BME280;1637;42.020;23.992;2023-01-10T00:47:10;92080.16;;;5.81;97.40
3250;BME280;1637;42.020;23.992;2023-01-10T00:49:37;92074.19;;;5.56;97.70
3250;BME280;1637;42.020;23.992;2023-01-10T00:52:04;92082.19;;;5.41;98.55
3250;BME280;1637;42.020;23.992;2023-01-10T00:54:31;92078.81;;;5.34;98.69
3250;BME280;1637;42.020;23.992;2023-01-10T00:56:58;92080.47;;;4.89;99.01
3250;BME280;1637;42.020;23.992;2023-01-10T00:59:25;92052.09;;;4.54;100.00
3250;BME280;1637;42.020;23.992;2023-01-10T01:01:53;92044.50;;;4.41;100.00
3250;BME280;1637;42.020;23.992;2023-01-10T01:04:21;92067.97;;;4.61;100.00
3250;BME280;1637;42.020;23.992;2023-01-10T01:06:48;92072.13;;;4.90;100.00
3250;BME280;1637;42.020;23.992;2023-01-10T01:09:15;92056.16;;;5.04;100.00
3250;BME280;1637;42.020;23.992;2023-01-10T01:11:42;92046.34;;;4.80;100.00
3250;BME280;1637;42.020;23.992;2023-01-10T01:14:09;92053.91;;;4.96;100.00
3250;BME280;1637;42.020;23.992;2023-01-10T01:16:36;92050.75;;;5.36;100.00
3250;BME280;1637;42.020;23.992;2023-01-10T01:19:03;92045.00;;;6.18;98.62
3250;BME280;1637;42.020;23.992;2023-01-10T01:21:32;92042.03;;;6.98;90.88
3250;BME280;1637;42.020;23.992;2023-01-10T01:23:59;92040.75;;;7.47;88.33
3250;BME280;1637;42.020;23.992;2023-01-10T01:26:26;92040.56;;;7.62;86.92
3250;BME280;1637;42.020;23.992;2023-01-10T01:28:53;92023.31;;;7.70;86.38
3250;BME280;1637;42.020;23.992;2023-01-10T01:31:20;92035.41;;;7.78;86.65
3250;BME280;1637;42.020;23.992;2023-01-10T01:33:46;91977.31;;;7.35;86.17
3250;BME280;1637;42.020;23.992;2023-01-10T01:36:13;92012.03;;;7.89;85.28
3250;BME280;1637;42.020;23.992;2023-01-10T01:38:41;92000.19;;;7.90;85.08
3250;BME280;1637;42.020;23.992;2023-01-10T01:41:08;92003.88;;;8.00;84.96
3250;BME280;1637;42.020;23.992;2023-01-10T01:43:59;91991.06;;;8.14;84.42
3250;BME280;1637;42.020;23.992;2023-01-10T01:46:27;91970.50;;;8.15;85.66
3250;BME280;1637;42.020;23.992;2023-01-10T01:48:54;91979.50;;;8.24;84.75
3250;BME280;1637;42.020;23.992;2023-01-10T01:51:24;91971.44;;;8.28;85.26
3250;BME280;1637;42.020;23.992;2023-01-10T01:53:56;91973.50;;;8.44;84.71
3250;BME280;1637;42.020;23.992;2023-01-10T01:56:27;91957.00;;;8.25;85.75
3250;BME280;1637;42.020;23.992;2023-01-10T01:58:58;91946.09;;;8.16;86.64
3250;BME280;1637;42.020;23.992;2023-01-10T02:01:27;91952.13;;;8.20;86.25
3250;BME280;1637;42.020;23.992;2023-01-10T02:04:00;91940.75;;;8.16;86.33
3250;BME280;1637;42.020;23.992;2023-01-10T02:06:28;91942.97;;;8.21;86.81
3250;BME280;1637;42.020;23.992;2023-01-10T02:09:03;91940.84;;;8.36;85.84
3250;BME280;1637;42.020;23.992;2023-01-10T02:11:33;91930.22;;;8.33;86.09
3250;BME280;1637;42.020;23.992;2023-01-10T02:14:04;91925.63;;;8.33;86.26
3250;BME280;1637;42.020;23.992;2023-01-10T02:16:31;91920.66;;;8.32;85.77
3250;BME280;1637;42.020;23.992;2023-01-10T02:18:58;91921.16;;;8.26;86.65
3250;BME280;1637;42.020;23.992;2023-01-10T02:27:54;91908.09;;;8.75;85.46
3250;BME280;1637;42.020;23.992;2023-01-10T02:30:39;91919.88;;;8.58;86.86
3250;BME280;1637;42.020;23.992;2023-01-10T02:33:19;91926.25;;;8.84;85.48
3250;BME280;1637;42.020;23.992;2023-01-10T02:36:04;91923.09;;;8.49;86.57
3250;BME280;1637;42.020;23.992;2023-01-10T02:38:45;91922.72;;;8.71;88.27
3250;BME280;1637;42.020;23.992;2023-01-10T02:41:20;91895.50;;;8.56;87.73
3250;BME280;1637;42.020;23.992;2023-01-10T02:43:54;91940.72;;;8.86;87.99
3250;BME280;1637;42.020;23.992;2023-01-10T02:46:26;91919.34;;;8.86;88.14
3250;BME280;1637;42.020;23.992;2023-01-10T02:48:56;91919.94;;;8.94;87.87
3250;BME280;1637;42.020;23.992;2023-01-10T02:51:25;91908.72;;;8.83;87.81
3250;BME280;1637;42.020;23.992;2023-01-10T02:53:55;91913.94;;;8.90;88.09
3250;BME280;1637;42.020;23.992;2023-01-10T02:59:47;91910.78;;;8.75;88.48
3250;BME280;1637;42.020;23.992;2023-01-10T03:02:24;91919.19;;;8.74;89.07
3250;BME280;1637;42.020;23.992;2023-01-10T03:05:02;91913.53;;;8.91;88.68
3250;BME280;1637;42.020;23.992;2023-01-10T03:07:36;91920.50;;;8.85;88.78
3250;BME280;1637;42.020;23.992;2023-01-10T03:10:07;91909.34;;;8.71;88.87
3250;BME280;1637;42.020;23.992;2023-01-10T03:12:39;91916.63;;;8.70;88.64
3250;BME280;1637;42.020;23.992;2023-01-10T03:15:10;91910.88;;;8.72;88.21
3250;BME280;1637;42.020;23.992;2023-01-10T03:17:40;91899.69;;;8.57;89.34
3250;BME280;1637;42.020;23.992;2023-01-10T03:20:11;91879.38;;;8.63;88.73
3250;BME280;1637;42.020;23.992;2023-01-10T03:22:39;91886.56;;;8.66;88.69
3250;BME280;1637;42.020;23.992;2023-01-10T03:25:10;91882.44;;;8.61;87.91
3250;BME280;1637;42.020;23.992;2023-01-10T03:27:46;91872.81;;;7.51;85.83
3250;BME280;1637;42.020;23.992;2023-01-10T03:30:23;91887.84;;;7.11;88.77
3250;BME280;1637;42.020;23.992;2023-01-10T03:32:52;91881.13;;;7.03;90.31
3250;BME280;1637;42.020;23.992;2023-01-10T03:35:26;91859.50;;;6.67;90.85
3250;BME280;1637;42.020;23.992;2023-01-10T03:38:01;91879.22;;;6.69;92.33
3250;BME280;1637;42.020;23.992;2023-01-10T03:40:34;91881.97;;;6.96;91.79
3250;BME280;1637;42.020;23.992;2023-01-10T03:43:08;91882.78;;;6.89;91.87
3250;BME280;1637;42.020;23.992;2023-01-10T03:45:57;91875.59;;;6.86;91.91
3250;BME280;1637;42.020;23.992;2023-01-10T03:48:28;91874.72;;;6.97;91.61
3250;BME280;1637;42.020;23.992;2023-01-10T03:51:01;91879.84;;;6.84;92.52
3250;BME280;1637;42.020;23.992;2023-01-10T03:53:29;91879.25;;;6.66;94.42
3250;BME280;1637;42.020;23.992;2023-01-10T03:55:56;91871.47;;;6.85;94.00
3250;BME280;1637;42.020;23.992;2023-01-10T03:58:23;91884.19;;;7.01;92.57
3250;BME280;1637;42.020;23.992;2023-01-10T04:00:50;91883.16;;;6.92;93.15
3250;BME280;1637;42.020;23.992;2023-01-10T04:03:17;91879.41;;;7.16;91.47
3250;BME280;1637;42.020;23.992;2023-01-10T04:05:44;91884.66;;;6.93;92.22
3250;BME280;1637;42.020;23.992;2023-01-10T04:08:12;91883.72;;;6.76;93.02
3250;BME280;1637;42.020;23.992;2023-01-10T04:10:39;91877.47;;;6.59;93.39
3250;BME280;1637;42.020;23.992;2023-01-10T04:13:05;91878.69;;;6.51;93.47
3250;BME280;1637;42.020;23.992;2023-01-10T04:15:32;91876.31;;;6.60;93.46
3250;BME280;1637;42.020;23.992;2023-01-10T04:17:59;91870.03;;;6.77;92.69
3250;BME280;1637;42.020;23.992;2023-01-10T04:20:26;91871.03;;;6.57;92.87
3250;BME280;1637;42.020;23.992;2023-01-10T04:22:53;91869.81;;;6.27;94.99
3250;BME280;1637;42.020;23.992;2023-01-10T04:25:21;91867.91;;;5.83;96.63
3250;BME280;1637;42.020;23.992;2023-01-10T04:27:49;91864.09;;;5.87;96.55
3250;BME280;1637;42.020;23.992;2023-01-10T04:30:16;91859.25;;;5.79;97.50
3250;BME280;1637;42.020;23.992;2023-01-10T04:32:43;91867.38;;;6.43;94.75
3250;BME280;1637;42.020;23.992;2023-01-10T04:35:10;91862.59;;;6.28;94.91
3250;BME280;1637;42.020;23.992;2023-01-10T04:37:37;91867.53;;;6.26;96.03
3250;BME280;1637;42.020;23.992;2023-01-10T04:40:05;91878.78;;;6.44;95.21
3250;BME280;1637;42.020;23.992;2023-01-10T04:42:33;91881.78;;;6.08;96.40
3250;BME280;1637;42.020;23.992;2023-01-10T04:45:00;91873.06;;;6.04;97.26
3250;BME280;1637;42.020;23.992;2023-01-10T04:47:27;91864.94;;;6.22;97.36
3250;BME280;1637;42.020;23.992;2023-01-10T04:49:53;91871.22;;;6.39;95.22
3250;BME280;1637;42.020;23.992;2023-01-10T04:52:20;91866.03;;;5.83;96.15
3250;BME280;1637;42.020;23.992;2023-01-10T04:54:49;91857.75;;;5.26;100.00
3250;BME280;1637;42.020;23.992;2023-01-10T04:57:16;91844.19;;;5.62;100.00
3250;BME280;1637;42.020;23.992;2023-01-10T04:59:44;91829.66;;;5.77;99.70
3250;BME280;1637;42.020;23.992;2023-01-10T05:02:11;91838.25;;;5.95;97.92
3250;BME280;1637;42.020;23.992;2023-01-10T05:04:38;91838.78;;;5.76;99.42
3250;BME280;1637;42.020;23.992;2023-01-10T05:07:05;91831.72;;;5.59;100.00
3250;BME280;1637;42.020;23.992;2023-01-10T05:09:31;91832.19;;;5.91;99.37
3250;BME280;1637;42.020;23.992;2023-01-10T05:11:58;91818.59;;;5.82;98.56
3250;BME280;1637;42.020;23.992;2023-01-10T05:14:25;91824.41;;;5.70;100.00
3250;BME280;1637;42.020;23.992;2023-01-10T05:16:53;91826.66;;;5.71;99.96
3250;BME280;1637;42.020;23.992;2023-01-10T05:19:21;91827.44;;;5.68;100.00
3250;BME280;1637;42.020;23.992;2023-01-10T05:21:47;91825.19;;;5.67;99.80
3250;BME280;1637;42.020;23.992;2023-01-10T05:24:14;91819.09;;;5.70;99.72
3250;BME280;1637;42.020;23.992;2023-01-10T05:26:41;91833.31;;;5.45;99.87
3250;BME280;1637;42.020;23.992;2023-01-10T05:29:09;91823.47;;;5.46;100.00
3250;BME280;1637;42.020;23.992;2023-01-10T05:31:36;91831.59;;;5.69;99.67
3250;BME280;1637;42.020;23.992;2023-01-10T05:34:05;91833.72;;;5.40;100.00
3250;BME280;1637;42.020;23.992;2023-01-10T05:36:32;91838.09;;;5.65;100.00
3250;BME280;1637;42.020;23.992;2023-01-10T05:38:59;91843.66;;;5.81;97.87
3250;BME280;1637;42.020;23.992;2023-01-10T05:41:26;91844.38;;;5.85;96.57
3250;BME280;1637;42.020;23.992;2023-01-10T05:43:53;91854.03;;;5.65;97.56
3250;BME280;1637;42.020;23.992;2023-01-10T05:46:20;91853.66;;;5.66;97.97
3250;BME280;1637;42.020;23.992;2023-01-10T05:48:46;91850.41;;;5.44;99.32
3250;BME280;1637;42.020;23.992;2023-01-10T05:51:14;91833.59;;;5.10;100.00
3250;BME280;1637;42.020;23.992;2023-01-10T05:53:41;91829.31;;;5.23;100.00
3250;BME280;1637;42.020;23.992;2023-01-10T05:56:08;91844.78;;;5.39;100.00
3250;BME280;1637;42.020;23.992;2023-01-10T05:58:35;91853.66;;;5.63;99.75
3250;BME280;1637;42.020;23.992;2023-01-10T06:01:02;91855.44;;;5.32;100.00
3250;BME280;1637;42.020;23.992;2023-01-10T06:03:29;91846.44;;;5.18;100.00
3250;BME280;1637;42.020;23.992;2023-01-10T06:05:56;91850.03;;;5.42;100.00
3250;BME280;1637;42.020;23.992;2023-01-10T06:08:24;91849.94;;;5.57;100.00
3250;BME280;1637;42.020;23.992;2023-01-10T06:10:51;91854.97;;;5.44;100.00
3250;BME280;1637;42.020;23.992;2023-01-10T06:13:18;91842.81;;;5.46;100.00
3250;BME280;1637;42.020;23.992;2023-01-10T06:15:45;91850.91;;;5.25;100.00
3250;BME280;1637;42.020;23.992;2023-01-10T06:18:12;91845.69;;;5.14;100.00
3250;BME280;1637;42.020;23.992;2023-01-10T06:20:39;91851.53;;;5.47;100.00
3250;BME280;1637;42.020;23.992;2023-01-10T06:23:06;91856.22;;;5.29;100.00
3250;BME280;1637;42.020;23.992;2023-01-10T06:25:36;91855.59;;;5.07;100.00
3250;BME280;1637;42.020;23.992;2023-01-10T06:28:05;91874.38;;;5.34;100.00
3250;BME280;1637;42.020;23.992;2023-01-10T06:30:32;91865.03;;;5.67;100.00
3250;BME280;1637;42.020;23.992;2023-01-10T06:32:59;91848.69;;;5.68;100.00
3250;BME280;1637;42.020;23.992;2023-01-10T06:35:27;91844.59;;;5.60;100.00
3250;BME280;1637;42.020;23.992;2023-01-10T06:37:54;91847.75;;;5.44;100.00
3250;BME280;1637;42.020;23.992;2023-01-10T06:40:21;91848.78;;;5.06;100.00
3250;BME280;1637;42.020;23.992;2023-01-10T06:42:49;91848.91;;;4.84;100.00
3250;BME280;1637;42.020;23.992;2023-01-10T06:45:16;91831.94;;;4.64;100.00
3250;BME280;1637;42.020;23.992;2023-01-10T06:47:43;91850.47;;;4.75;100.00
3250;BME280;1637;42.020;23.992;2023-01-10T06:50:11;91859.56;;;4.74;100.00
3250;BME280;1637;42.020;23.992;2023-01-10T06:52:38;91858.91;;;4.56;100.00
3250;BME280;1637;42.020;23.992;2023-01-10T06:55:07;91871.63;;;4.86;100.00
3250;BME280;1637;42.020;23.992;2023-01-10T06:57:34;91848.13;;;4.88;100.00
3250;BME280;1637;42.020;23.992;2023-01-10T07:00:06;91854.53;;;4.94;100.00
3250;BME280;1637;42.020;23.992;2023-01-10T07:02:35;91878.16;;;4.70;100.00
3250;BME280;1637;42.020;23.992;2023-01-10T07:05:03;91862.63;;;4.65;100.00
3250;BME280;1637;42.020;23.992;2023-01-10T07:07:29;91852.66;;;4.94;100.00
3250;BME280;1637;42.020;23.992;2023-01-10T07:09:56;91855.56;;;5.14;100.00
3250;BME280;1637;42.020;23.992;2023-01-10T07:12:24;91865.22;;;4.79;100.00
3250;BME280;1637;42.020;23.992;2023-01-10T07:14:51;91861.00;;;4.93;100.00
3250;BME280;1637;42.020;23.992;2023-01-10T07:17:19;91847.72;;;4.93;100.00
3250;BME280;1637;42.020;23.992;2023-01-10T07:19:46;91844.88;;;5.21;100.00
3250;BME280;1637;42.020;23.992;2023-01-10T07:22:12;91851.16;;;4.90;100.00
3250;BME280;1637;42.020;23.992;2023-01-10T07:24:39;91855.41;;;4.76;100.00
3250;BME280;1637;42.020;23.992;2023-01-10T07:27:06;91847.81;;;4.75;100.00
3250;BME280;1637;42.020;23.992;2023-01-10T07:29:33;91814.25;;;4.40;100.00
3250;BME280;1637;42.020;23.992;2023-01-10T07:32:00;91828.19;;;4.58;100.00
3250;BME280;1637;42.020;23.992;2023-01-10T07:34:28;91819.31;;;4.90;100.00
3250;BME280;1637;42.020;23.992;2023-01-10T07:36:55;91822.69;;;4.94;100.00
3250;BME280;1637;42.020;23.992;2023-01-10T07:39:21;91814.00;;;4.93;100.00
3250;BME280;1637;42.020;23.992;2023-01-10T07:41:49;91815.25;;;4.67;100.00
3250;BME280;1637;42.020;23.992;2023-01-10T07:44:17;91811.84;;;4.67;100.00
3250;BME280;1637;42.020;23.992;2023-01-10T07:46:43;91792.16;;;4.68;100.00
3250;BME280;1637;42.020;23.992;2023-01-10T07:49:10;91798.75;;;5.04;100.00
3250;BME280;1637;42.020;23.992;2023-01-10T07:51:40;91805.31;;;4.86;100.00
3250;BME280;1637;42.020;23.992;2023-01-10T07:54:06;91807.41;;;5.15;100.00
3250;BME280;1637;42.020;23.992;2023-01-10T07:56:33;91794.19;;;5.05;100.00
3250;BME280;1637;42.020;23.992;2023-01-10T07:59:00;91804.06;;;5.01;100.00
3250;BME280;1637;42.020;23.992;2023-01-10T08:01:27;91803.16;;;5.22;100.00
3250;BME280;1637;42.020;23.992;2023-01-10T08:03:55;91797.97;;;5.04;100.00
3250;BME280;1637;42.020;23.992;2023-01-10T08:06:23;91798.94;;;4.72;100.00
3250;BME280;1637;42.020;23.992;2023-01-10T08:08:51;91800.19;;;4.57;100.00
3250;BME280;1637;42.020;23.992;2023-01-10T08:11:18;91801.63;;;4.65;100.00
3250;BME280;1637;42.020;23.992;2023-01-10T08:13:45;91804.66;;;4.71;100.00
3250;BME280;1637;42.020;23.992;2023-01-10T08:16:12;91806.56;;;4.67;100.00
3250;BME280;1637;42.020;23.992;2023-01-10T08:18:39;91809.44;;;4.94;100.00
3250;BME280;1637;42.020;23.992;2023-01-10T08:21:08;91814.81;;;4.79;100.00
3250;BME280;1637;42.020;23.992;2023-01-10T08:23:35;91798.50;;;4.81;100.00
3250;BME280;1637;42.020;23.992;2023-01-10T08:26:03;91771.13;;;4.98;100.00
3250;BME280;1637;42.020;23.992;2023-01-10T08:28:31;91812.75;;;5.08;100.00
3250;BME280;1637;42.020;23.992;2023-01-10T08:30:58;91815.50;;;4.91;100.00
3250;BME280;1637;42.020;23.992;2023-01-10T08:33:29;91805.72;;;4.80;100.00
3250;BME280;1637;42.020;23.992;2023-01-10T08:35:56;91810.19;;;4.94;100.00
3250;BME280;1637;42.020;23.992;2023-01-10T08:38:23;91799.25;;;4.85;100.00
3250;BME280;1637;42.020;23.992;2023-01-10T08:40:50;91800.97;;;5.13;100.00
3250;BME280;1637;42.020;23.992;2023-01-10T08:43:18;91804.44;;;5.03;100.00
3250;BME280;1637;42.020;23.992;2023-01-10T08:45:45;91799.72;;;5.28;100.00
3250;BME280;1637;42.020;23.992;2023-01-10T08:48:12;91794.72;;;5.37;100.00
3250;BME280;1637;42.020;23.992;2023-01-10T08:50:40;91788.50;;;5.03;100.00
3250;BME280;1637;42.020;23.992;2023-01-10T08:53:06;91784.31;;;5.05;100.00
3250;BME280;1637;42.020;23.992;2023-01-10T08:55:33;91744.81;;;4.66;100.00
3250;BME280;1637;42.020;23.992;2023-01-10T08:58:01;91778.50;;;4.73;100.00
3250;BME280;1637;42.020;23.992;2023-01-10T09:00:29;91758.66;;;4.92;100.00
3250;BME280;1637;42.020;23.992;2023-01-10T09:02:56;91757.94;;;4.84;100.00
3250;BME280;1637;42.020;23.992;2023-01-10T09:05:23;91750.09;;;4.70;100.00
3250;BME280;1637;42.020;23.992;2023-01-10T09:07:51;91754.31;;;4.60;100.00
3250;BME280;1637;42.020;23.992;2023-01-10T09:10:18;91758.44;;;4.68;100.00
3250;BME280;1637;42.020;23.992;2023-01-10T09:12:45;91753.03;;;4.79;100.00
3250;BME280;1637;42.020;23.992;2023-01-10T09:15:22;91742.84;;;4.77;100.00
3250;BME280;1637;42.020;23.992;2023-01-10T09:17:53;91746.78;;;4.52;100.00
3250;BME280;1637;42.020;23.992;2023-01-10T09:20:21;91743.00;;;5.08;100.00
3250;BME280;1637;42.020;23.992;2023-01-10T09:22:48;91739.56;;;5.11;100.00
3250;BME280;1637;42.020;23.992;2023-01-10T09:25:15;91702.38;;;4.66;100.00
3250;BME280;1637;42.020;23.992;2023-01-10T09:27:42;91729.94;;;4.79;100.00
3250;BME280;1637;42.020;23.992;2023-01-10T09:30:10;91723.53;;;4.73;100.00
3250;BME280;1637;42.020;23.992;2023-01-10T09:32:37;91723.59;;;4.66;100.00
3250;BME280;1637;42.020;23.992;2023-01-10T09:35:06;91723.28;;;4.57;100.00
3250;BME280;1637;42.020;23.992;2023-01-10T09:37:32;91719.81;;;4.64;100.00
3250;BME280;1637;42.020;23.992;2023-01-10T09:39:59;91677.66;;;4.25;100.00
3250;BME280;1637;42.020;23.992;2023-01-10T09:42:44;91710.72;;;4.65;100.00
3250;BME280;1637;42.020;23.992;2023-01-10T09:45:16;91714.53;;;4.60;100.00
3250;BME280;1637;42.020;23.992;2023-01-10T09:47:50;91701.97;;;4.71;100.00
3250;BME280;1637;42.020;23.992;2023-01-10T09:50:27;91705.03;;;4.66;100.00
3250;BME280;1637;42.020;23.992;2023-01-10T09:53:02;91696.63;;;4.75;100.00
3250;BME280;1637;42.020;23.992;2023-01-10T09:55:32;91703.31;;;4.94;100.00
3250;BME280;1637;42.020;23.992;2023-01-10T09:58:03;91694.13;;;5.02;100.00
3250;BME280;1637;42.020;23.992;2023-01-10T10:00:37;91684.31;;;4.99;100.00
3250;BME280;1637;42.020;23.992;2023-01-10T10:03:15;91681.00;;;4.88;100.00
3250;BME280;1637;42.020;23.992;2023-01-10T10:05:46;91684.44;;;4.81;100.00
3250;BME280;1637;42.020;23.992;2023-01-10T10:08:15;91680.34;;;4.76;100.00
3250;BME280;1637;42.020;23.992;2023-01-10T10:10:54;91662.44;;;4.84;100.00
3250;BME280;1637;42.020;23.992;2023-01-10T10:13:30;91642.72;;;4.85;100.00
3250;BME280;1637;42.020;23.992;2023-01-10T10:16:08;91647.66;;;4.87;100.00
3250;BME280;1637;42.020;23.992;2023-01-10T10:18:45;91633.53;;;4.97;100.00
3250;BME280;1637;42.020;23.992;2023-01-10T10:21:23;91632.88;;;4.86;100.00
3250;BME280;1637;42.020;23.992;2023-01-10T10:24:03;91605.22;;;4.83;100.00
3250;BME280;1637;42.020;23.992;2023-01-10T10:26:37;91636.69;;;5.22;100.00
3250;BME280;1637;42.020;23.992;2023-01-10T10:29:26;91623.53;;;5.11;100.00
3250;BME280;1637;42.020;23.992;2023-01-10T10:32:15;91613.53;;;5.26;100.00
3250;BME280;1637;42.020;23.992;2023-01-10T10:34:50;91610.50;;;5.24;100.00
3250;BME280;1637;42.020;23.992;2023-01-10T10:37:24;91611.94;;;5.32;100.00
3250;BME280;1637;42.020;23.992;2023-01-10T10:39:59;91610.38;;;5.38;100.00
3250;BME280;1637;42.020;23.992;2023-01-10T10:42:29;91610.38;;;5.69;100.00
3250;BME280;1637;42.020;23.992;2023-01-10T10:45:00;91606.84;;;5.79;100.00
3250;BME280;1637;42.020;23.992;2023-01-10T10:47:33;91626.72;;;5.67;100.00
3250;BME280;1637;42.020;23.992;2023-01-10T10:50:07;91586.56;;;5.62;100.00
3250;BME280;1637;42.020;23.992;2023-01-10T10:52:43;91589.22;;;5.62;100.00
3250;BME280;1637;42.020;23.992;2023-01-10T10:55:14;91580.97;;;5.83;100.00
3250;BME280;1637;42.020;23.992;2023-01-10T10:57:42;91584.91;;;5.71;100.00
3250;BME280;1637;42.020;23.992;2023-01-10T11:00:14;91588.53;;;5.84;100.00
3250;BME280;1637;42.020;23.992;2023-01-10T11:02:44;91608.88;;;5.68;100.00
3250;BME280;1637;42.020;23.992;2023-01-10T11:05:16;91592.91;;;6.02;100.00
3250;BME280;1637;42.020;23.992;2023-01-10T11:07:45;91591.53;;;6.17;100.00
3250;BME280;1637;42.020;23.992;2023-01-10T11:10:15;91591.19;;;6.15;100.00
3250;BME280;1637;42.020;23.992;2023-01-10T11:13:07;91585.16;;;6.11;100.00
3250;BME280;1637;42.020;23.992;2023-01-10T11:15:40;91581.31;;;6.15;100.00
3250;BME280;1637;42.020;23.992;2023-01-10T11:18:11;91568.72;;;6.19;100.00
3250;BME280;1637;42.020;23.992;2023-01-10T11:20:46;91560.53;;;6.34;100.00
3250;BME280;1637;42.020;23.992;2023-01-10T11:23:24;91557.97;;;6.27;100.00
3250;BME280;1637;42.020;23.992;2023-01-10T11:25:55;91565.00;;;6.13;100.00
3250;BME280;1637;42.020;23.992;2023-01-10T11:28:24;91527.63;;;6.01;100.00
3250;BME280;1637;42.020;23.992;2023-01-10T11:30:53;91564.34;;;6.33;100.00
3250;BME280;1637;42.020;23.992;2023-01-10T11:33:22;91563.25;;;6.30;100.00
3250;BME280;1637;42.020;23.992;2023-01-10T11:36:00;91549.50;;;6.35;100.00
3250;BME280;1637;42.020;23.992;2023-01-10T11:38:29;91537.50;;;6.47;100.00
3250;BME280;1637;42.020;23.992;2023-01-10T11:40:58;91535.03;;;6.60;100.00
3250;BME280;1637;42.020;23.992;2023-01-10T11:43:29;91543.38;;;6.62;100.00
3250;BME280;1637;42.020;23.992;2023-01-10T11:45:59;91543.56;;;6.71;100.00
3250;BME280;1637;42.020;23.992;2023-01-10T11:48:38;91536.09;;;6.42;100.00
3250;BME280;1637;42.020;23.992;2023-01-10T11:51:15;91537.09;;;6.25;100.00
3250;BME280;1637;42.020;23.992;2023-01-10T11:53:46;91536.44;;;6.21;100.00
3250;BME280;1637;42.020;23.992;2023-01-10T11:56:22;91527.34;;;6.18;100.00
3250;BME280;1637;42.020;23.992;2023-01-10T11:58:51;91533.13;;;6.60;100.00
3250;BME280;1637;42.020;23.992;2023-01-10T12:01:25;91539.94;;;7.64;100.00
3250;BME280;1637;42.020;23.992;2023-01-10T12:03:53;91545.81;;;7.91;100.00
3250;BME280;1637;42.020;23.992;2023-01-10T12:06:20;91543.19;;;8.07;100.00
3250;BME280;1637;42.020;23.992;2023-01-10T12:08:49;91522.50;;;7.23;100.00
3250;BME280;1637;42.020;23.992;2023-01-10T12:11:24;91502.25;;;7.45;100.00
3250;BME280;1637;42.020;23.992;2023-01-10T12:13:53;91509.34;;;7.52;100.00
3250;BME280;1637;42.020;23.992;2023-01-10T12:16:23;91499.19;;;9.09;100.00
3250;BME280;1637;42.020;23.992;2023-01-10T12:18:51;91507.28;;;8.60;96.27
3250;BME280;1637;42.020;23.992;2023-01-10T12:21:24;91522.16;;;7.93;100.00
3250;BME280;1637;42.020;23.992;2023-01-10T12:23:55;91529.84;;;7.35;100.00
3250;BME280;1637;42.020;23.992;2023-01-10T12:26:24;91536.47;;;7.07;100.00
3250;BME280;1637;42.020;23.992;2023-01-10T12:28:54;91542.81;;;6.70;100.00
3250;BME280;1637;42.020;23.992;2023-01-10T12:31:24;91538.50;;;6.80;100.00
3250;BME280;1637;42.020;23.992;2023-01-10T12:33:57;91531.22;;;7.04;100.00
3250;BME280;1637;42.020;23.992;2023-01-10T12:36:35;91522.94;;;6.98;100.00
3250;BME280;1637;42.020;23.992;2023-01-10T12:39:13;91513.59;;;6.90;100.00
3250;BME280;1637;42.020;23.992;2023-01-10T12:41:51;91518.06;;;6.73;100.00
3250;BME280;1637;42.020;23.992;2023-01-10T12:44:38;91506.72;;;6.69;100.00
3250;BME280;1637;42.020;23.992;2023-01-10T12:47:15;91499.50;;;6.70;100.00
3250;BME280;1637;42.020;23.992;2023-01-10T12:49:48;91519.81;;;6.83;100.00
3250;BME280;1637;42.020;23.992;2023-01-10T12:52:23;91540.16;;;6.70;100.00
3250;BME280;1637;42.020;23.992;2023-01-10T12:54:54;91554.97;;;6.71;100.00
3250;BME280;1637;42.020;23.992;2023-01-10T12:57:24;91545.34;;;6.58;100.00
3250;BME280;1637;42.020;23.992;2023-01-10T12:59:54;91561.91;;;6.88;100.00
3250;BME280;1637;42.020;23.992;2023-01-10T13:02:25;91551.84;;;6.76;100.00
3250;BME280;1637;42.020;23.992;2023-01-10T13:04:56;91544.78;;;6.66;100.00
3250;BME280;1637;42.020;23.992;2023-01-10T13:07:27;91547.81;;;6.68;100.00
3250;BME280;1637;42.020;23.992;2023-01-10T13:10:00;91543.44;;;6.58;100.00
3250;BME280;1637;42.020;23.992;2023-01-10T13:12:30;91541.19;;;7.00;100.00
3250;BME280;1637;42.020;23.992;2023-01-10T13:15:04;91543.56;;;6.94;100.00
3250;BME280;1637;42.020;23.992;2023-01-10T13:17:38;91539.56;;;7.06;100.00
3250;BME280;1637;42.020;23.992;2023-01-10T13:23:20;91442.91;;;6.46;100.00
3250;BME280;1637;42.020;23.992;2023-01-10T13:25:58;91536.00;;;7.12;100.00
3250;BME280;1637;42.020;23.992;2023-01-10T13:28:27;91529.50;;;7.13;100.00
3250;BME280;1637;42.020;23.992;2023-01-10T13:30:56;91544.03;;;7.09;100.00
3250;BME280;1637;42.020;23.992;2023-01-10T13:33:27;91536.28;;;6.75;100.00
3250;BME280;1637;42.020;23.992;2023-01-10T13:35:57;91498.56;;;6.60;100.00
3250;BME280;1637;42.020;23.992;2023-01-10T13:38:38;91512.03;;;6.93;100.00
3250;BME280;1637;42.020;23.992;2023-01-10T13:41:11;91526.06;;;6.93;100.00
3250;BME280;1637;42.020;23.992;2023-01-10T13:44:01;91543.09;;;6.99;100.00